Time;durP1;ratioP1;P1;durP2;ratioP2;P2;SDS_P1;SDS_P2;PMS_P1;PMS_P2;Temp;Humidity;BMP_temperature;BMP_pressure;BME280_temperature;BME280_humidity;BME280_pressure;Samples;Min_cycle;Max_cycle;Signal;HPM_P1;HPM_P2
2023/05/25 00:01:08;;;;;;;11.70;4.15;;;9.40;99.90;;;;;;4936534;28;20050;-77
2023/05/25 00:03:34;;;;;;;12.27;3.53;;;9.50;99.90;;;;;;4941806;28;20063;-77
2023/05/25 00:06:01;;;;;;;12.23;3.63;;;9.40;99.90;;;;;;4941551;28;20055;-80
2023/05/25 00:08:27;;;;;;;10.50;4.10;;;9.50;99.90;;;;;;4957801;28;20606;-77
2023/05/25 00:10:52;;;;;;;8.25;3.25;;;9.30;99.90;;;;;;4942908;28;20047;-78
2023/05/25 00:13:18;;;;;;;9.32;3.90;;;9.30;99.90;;;;;;4926278;29;20492;-77
2023/05/25 00:15:44;;;;;;;9.32;3.78;;;9.30;99.90;;;;;;4942468;28;20055;-77
2023/05/25 00:18:10;;;;;;;10.43;3.55;;;9.20;99.90;;;;;;4938202;29;20058;-77
2023/05/25 00:20:36;;;;;;;11.55;3.80;;;9.30;99.90;;;;;;4939779;29;20051;-76
2023/05/25 00:23:02;;;;;;;9.68;3.70;;;9.20;99.90;;;;;;4940898;28;20095;-77
2023/05/25 00:25:28;;;;;;;10.35;4.03;;;9.20;99.90;;;;;;4938088;28;20102;-77
2023/05/25 00:27:54;;;;;;;11.13;3.85;;;9.20;99.90;;;;;;4954709;28;20135;-76
2023/05/25 00:30:19;;;;;;;12.55;3.90;;;9.20;99.90;;;;;;4939614;29;20054;-77
2023/05/25 00:32:46;;;;;;;11.98;4.22;;;9.10;99.90;;;;;;4940023;29;20174;-77
2023/05/25 00:35:12;;;;;;;9.77;2.95;;;9.10;99.90;;;;;;4940093;28;20051;-76
2023/05/25 00:37:38;;;;;;;11.32;3.67;;;9.30;99.90;;;;;;4936025;29;20047;-77
2023/05/25 00:40:07;;;;;;;9.55;3.63;;;9.10;99.90;;;;;;4940591;29;20043;-77
2023/05/25 00:42:32;;;;;;;12.40;3.97;;;9.10;99.90;;;;;;4937976;28;20044;-77
2023/05/25 00:44:58;;;;;;;7.88;3.17;;;9.10;99.90;;;;;;4934270;29;21702;-77
2023/05/25 00:47:24;;;;;;;11.90;3.42;;;9.00;99.90;;;;;;4920967;29;20043;-77
2023/05/25 00:49:50;;;;;;;14.32;4.07;;;9.00;99.90;;;;;;4934645;28;20047;-77
2023/05/25 00:52:16;;;;;;;10.77;3.55;;;9.00;99.90;;;;;;4922048;29;20698;-76
2023/05/25 00:54:44;;;;;;;9.90;3.58;;;9.00;99.90;;;;;;4922894;29;20106;-76
2023/05/25 00:57:13;;;;;;;10.90;3.63;;;8.90;99.90;;;;;;4939506;29;20058;-76
2023/05/25 00:59:48;;;;;;;12.13;3.90;;;9.40;99.90;;;;;;4933872;28;20076;-76
2023/05/25 01:02:17;;;;;;;11.93;3.40;;;9.40;99.90;;;;;;4938381;28;21911;-76
2023/05/25 01:04:58;;;;;;;8.52;3.55;;;8.90;99.90;;;;;;4940511;28;20043;-77
2023/05/25 01:07:26;;;;;;;13.50;3.67;;;8.80;99.90;;;;;;4935701;29;20086;-76
2023/05/25 01:10:01;;;;;;;11.25;4.10;;;8.80;99.90;;;;;;4920762;29;20059;-76
2023/05/25 01:12:28;;;;;;;10.85;3.30;;;8.90;99.90;;;;;;4938962;29;20507;-76
2023/05/25 01:14:55;;;;;;;11.40;3.47;;;8.80;99.90;;;;;;4932382;29;20407;-76
2023/05/25 01:17:21;;;;;;;9.82;3.53;;;8.80;99.90;;;;;;4932513;29;20152;-82
2023/05/25 01:19:47;;;;;;;11.18;3.70;;;8.80;99.90;;;;;;4922915;29;20055;-82
2023/05/25 01:22:27;;;;;;;11.18;3.88;;;8.70;99.90;;;;;;4939062;28;20070;-82
2023/05/25 01:25:02;;;;;;;9.88;3.58;;;8.70;99.90;;;;;;4940090;28;20043;-82
2023/05/25 01:27:34;;;;;;;13.55;3.88;;;8.70;99.90;;;;;;4936871;28;20130;-76
2023/05/25 01:30:02;;;;;;;14.38;3.75;;;9.10;99.90;;;;;;4937365;28;20051;-77
2023/05/25 01:32:28;;;;;;;11.80;4.20;;;8.60;99.90;;;;;;4932341;29;20526;-76
2023/05/25 01:34:56;;;;;;;9.38;3.60;;;8.60;99.90;;;;;;4942183;29;20442;-76
2023/05/25 01:37:23;;;;;;;11.18;4.10;;;8.60;99.90;;;;;;4950494;28;20055;-75
2023/05/25 01:39:49;;;;;;;12.35;3.70;;;8.60;99.90;;;;;;4952124;28;20130;-76
2023/05/25 01:42:15;;;;;;;9.70;3.83;;;8.50;99.90;;;;;;4955597;28;20046;-77
2023/05/25 01:44:41;;;;;;;9.93;3.90;;;8.50;99.90;;;;;;4924989;29;20043;-76
2023/05/25 01:47:17;;;;;;;9.00;3.47;;;8.50;99.90;;;;;;4920561;29;20046;-75
2023/05/25 01:50:06;;;;;;;10.98;3.90;;;8.50;99.90;;;;;;4939243;29;20047;-76
2023/05/25 01:52:42;;;;;;;8.48;3.67;;;8.50;99.90;;;;;;4942622;28;20058;-77
2023/05/25 01:55:13;;;;;;;13.07;3.50;;;8.40;99.90;;;;;;4943371;28;20054;-76
2023/05/25 01:57:44;;;;;;;8.85;4.13;;;8.70;99.90;;;;;;4943700;28;20048;-77
2023/05/25 02:00:12;;;;;;;13.13;4.10;;;8.40;99.90;;;;;;4943298;28;20070;-76
2023/05/25 02:02:41;;;;;;;12.80;4.68;;;8.40;99.90;;;;;;4936086;28;20053;-76
2023/05/25 02:05:09;;;;;;;11.15;4.10;;;8.40;99.90;;;;;;4939719;28;20054;-76
2023/05/25 02:07:35;;;;;;;10.73;4.30;;;8.30;99.90;;;;;;4938267;29;20857;-76
2023/05/25 02:10:02;;;;;;;10.60;3.92;;;8.30;99.90;;;;;;4932408;28;20051;-77
2023/05/25 02:12:27;;;;;;;12.50;4.25;;;8.30;99.90;;;;;;4933771;28;20039;-77
2023/05/25 02:14:53;;;;;;;12.25;4.10;;;8.30;99.90;;;;;;4938524;29;20058;-76
2023/05/25 02:17:19;;;;;;;10.80;3.97;;;8.30;99.90;;;;;;4936879;29;20173;-76
2023/05/25 02:19:47;;;;;;;11.23;4.10;;;8.30;99.90;;;;;;4922121;29;20113;-76
2023/05/25 02:22:13;;;;;;;9.85;3.88;;;8.30;99.90;;;;;;4936868;28;20285;-76
2023/05/25 02:24:40;;;;;;;11.30;4.47;;;8.40;99.90;;;;;;4937515;29;20695;-76
2023/05/25 02:27:06;;;;;;;10.07;4.03;;;8.30;99.90;;;;;;4933484;29;20102;-76
2023/05/25 02:29:32;;;;;;;8.27;3.67;;;8.30;99.90;;;;;;4934101;28;20043;-76
2023/05/25 02:31:58;;;;;;;10.20;4.10;;;8.30;99.90;;;;;;4933287;29;20039;-76
2023/05/25 02:34:24;;;;;;;15.98;4.88;;;8.30;99.90;;;;;;4942936;28;20570;-75
2023/05/25 02:36:50;;;;;;;13.35;4.35;;;8.30;99.90;;;;;;4943983;29;20039;-76
2023/05/25 02:39:15;;;;;;;12.90;4.43;;;8.30;99.90;;;;;;4940472;29;20067;-76
2023/05/25 02:41:41;;;;;;;14.23;4.28;;;8.30;99.90;;;;;;4946279;29;20039;-76
2023/05/25 02:44:07;;;;;;;12.48;4.35;;;8.30;99.90;;;;;;4942663;29;20409;-76
2023/05/25 02:46:33;;;;;;;12.02;4.25;;;8.40;99.90;;;;;;4958031;28;20131;-76
2023/05/25 02:48:59;;;;;;;12.50;4.40;;;8.30;99.90;;;;;;4960867;28;20918;-76
2023/05/25 02:51:27;;;;;;;11.95;5.22;;;8.50;99.90;;;;;;4944097;28;20047;-76
2023/05/25 02:53:53;;;;;;;16.42;6.05;;;8.30;99.90;;;;;;4927443;29;20118;-76
2023/05/25 02:56:18;;;;;;;12.88;4.63;;;8.30;99.90;;;;;;4941796;29;20471;-76
2023/05/25 02:58:44;;;;;;;12.07;4.40;;;8.30;99.90;;;;;;4958546;28;20053;-76
2023/05/25 03:01:16;;;;;;;12.30;4.65;;;8.30;99.90;;;;;;4941085;28;20039;-76
2023/05/25 03:03:44;;;;;;;11.30;4.22;;;8.20;99.90;;;;;;4942606;29;20046;-75
2023/05/25 03:06:11;;;;;;;12.32;5.38;;;8.20;99.90;;;;;;4955840;28;20046;-76
2023/05/25 03:08:38;;;;;;;10.57;4.20;;;8.30;99.90;;;;;;4942035;28;20054;-76
2023/05/25 03:11:04;;;;;;;12.98;4.10;;;8.20;99.90;;;;;;4941248;29;20055;-76
2023/05/25 03:13:30;;;;;;;10.60;4.80;;;8.20;99.90;;;;;;4940619;29;20039;-76
2023/05/25 03:15:55;;;;;;;11.05;4.60;;;8.20;99.90;;;;;;4942539;29;20054;-76
2023/05/25 03:18:21;;;;;;;12.30;4.55;;;8.20;99.90;;;;;;4924247;29;20211;-76
2023/05/25 03:20:47;;;;;;;13.45;5.05;;;8.10;99.90;;;;;;4940577;28;20054;-76
2023/05/25 03:23:13;;;;;;;13.15;4.60;;;8.10;99.90;;;;;;4940660;29;20081;-76
2023/05/25 03:25:38;;;;;;;11.30;4.60;;;8.20;99.90;;;;;;4958298;28;20749;-75
2023/05/25 03:28:04;;;;;;;10.32;4.63;;;8.10;99.90;;;;;;4942926;28;20036;-75
2023/05/25 03:30:30;;;;;;;11.48;4.80;;;8.10;99.90;;;;;;4936691;29;20048;-76
2023/05/25 03:32:56;;;;;;;14.15;4.93;;;8.10;99.90;;;;;;4940305;29;20047;-76
2023/05/25 03:35:22;;;;;;;12.68;4.72;;;8.00;99.90;;;;;;4941553;28;20048;-76
2023/05/25 03:37:47;;;;;;;11.00;4.97;;;8.10;99.90;;;;;;4933988;28;20558;-76
2023/05/25 03:40:13;;;;;;;13.60;5.55;;;8.00;99.90;;;;;;4956220;28;20046;-76
2023/05/25 03:42:42;;;;;;;11.45;5.13;;;8.10;99.90;;;;;;4940586;28;20073;-76
2023/05/25 03:45:08;;;;;;;11.88;5.13;;;8.10;99.90;;;;;;4941272;28;20057;-76
2023/05/25 03:47:37;;;;;;;12.32;4.75;;;8.10;99.90;;;;;;4926381;29;20695;-81
2023/05/25 03:50:05;;;;;;;12.13;4.78;;;8.10;99.90;;;;;;4944775;29;20043;-80
2023/05/25 03:52:32;;;;;;;10.13;4.60;;;8.10;99.90;;;;;;4944708;29;20036;-81
2023/05/25 03:54:57;;;;;;;13.70;5.53;;;8.10;99.90;;;;;;4960297;28;20134;-80
2023/05/25 03:57:23;;;;;;;10.75;4.47;;;8.10;99.90;;;;;;4947051;28;20130;-80
2023/05/25 03:59:49;;;;;;;10.52;4.57;;;8.10;99.90;;;;;;4950983;28;20106;-80
2023/05/25 04:02:15;;;;;;;11.07;4.90;;;8.10;99.90;;;;;;4952434;28;20043;-81
2023/05/25 04:04:40;;;;;;;11.07;5.50;;;8.10;99.90;;;;;;4963882;28;20102;-82
2023/05/25 04:07:07;;;;;;;11.43;4.72;;;8.10;99.90;;;;;;4950221;28;20090;-82
2023/05/25 04:09:32;;;;;;;9.55;4.43;;;8.10;99.90;;;;;;4945580;28;20134;-81
2023/05/25 04:11:58;;;;;;;11.85;4.75;;;8.10;99.90;;;;;;4966963;28;20732;-82
2023/05/25 04:14:24;;;;;;;12.68;5.25;;;8.10;99.90;;;;;;4931388;28;20047;-81
2023/05/25 04:16:50;;;;;;;12.85;4.72;;;8.20;99.90;;;;;;4950074;28;20060;-83
2023/05/25 04:19:16;;;;;;;14.23;5.97;;;8.20;99.90;;;;;;4942905;28;21051;-80
2023/05/25 04:21:42;;;;;;;14.23;6.07;;;8.20;99.90;;;;;;4926782;28;20055;-80
2023/05/25 04:24:09;;;;;;;11.88;5.18;;;8.20;99.90;;;;;;4927422;28;20122;-81
2023/05/25 04:26:38;;;;;;;17.25;6.28;;;8.30;99.90;;;;;;4943017;28;20474;-80
2023/05/25 04:29:04;;;;;;;15.70;5.55;;;8.30;99.90;;;;;;4929672;28;20102;-81
2023/05/25 04:31:29;;;;;;;10.55;5.20;;;8.30;99.90;;;;;;4942830;28;20246;-81
2023/05/25 04:33:57;;;;;;;13.27;5.75;;;8.50;99.90;;;;;;4929402;28;20057;-81
2023/05/25 04:36:23;;;;;;;15.18;6.38;;;8.60;99.90;;;;;;4947738;28;20043;-82
2023/05/25 04:38:51;;;;;;;14.27;5.57;;;8.80;99.90;;;;;;4941381;28;20053;-82
2023/05/25 04:41:17;;;;;;;15.18;5.90;;;9.10;99.90;;;;;;4945799;28;20048;-82
2023/05/25 04:43:45;;;;;;;16.00;5.30;;;9.30;99.90;;;;;;4961127;28;20049;-82
2023/05/25 04:46:12;;;;;;;16.40;5.22;;;9.60;99.90;;;;;;4942808;28;20071;-83
2023/05/25 04:48:39;;;;;;;13.25;5.40;;;9.80;99.90;;;;;;4943108;28;20146;-83
2023/05/25 04:51:06;;;;;;;11.18;4.63;;;10.10;99.90;;;;;;4955425;28;20039;-83
2023/05/25 04:53:34;;;;;;;14.35;5.22;;;10.40;99.90;;;;;;4935086;28;20058;-83
2023/05/25 04:56:00;;;;;;;14.82;5.20;;;10.60;99.90;;;;;;4936913;28;20359;-82
2023/05/25 04:58:28;;;;;;;11.80;4.72;;;10.80;99.90;;;;;;4935848;28;20087;-83
2023/05/25 05:00:57;;;;;;;12.48;4.78;;;11.10;99.90;;;;;;4933718;28;20137;-83
2023/05/25 05:03:23;;;;;;;11.68;4.38;;;11.40;99.90;;;;;;4952220;28;20051;-83
2023/05/25 05:05:49;;;;;;;13.95;4.60;;;11.60;99.90;;;;;;4941052;28;20050;-83
2023/05/25 05:08:14;;;;;;;14.40;4.75;;;11.90;99.90;;;;;;4940076;28;20130;-81
2023/05/25 05:10:40;;;;;;;11.52;4.60;;;12.10;99.90;;;;;;4962517;28;20050;-83
2023/05/25 05:13:06;;;;;;;13.45;4.65;;;12.30;99.90;;;;;;4933293;28;20050;-84
2023/05/25 05:15:32;;;;;;;13.40;4.60;;;12.50;99.90;;;;;;4946186;28;20051;-83
2023/05/25 05:17:58;;;;;;;13.70;4.60;;;12.70;99.90;;;;;;4947061;28;20047;-83
2023/05/25 05:20:24;;;;;;;15.30;4.68;;;12.60;99.90;;;;;;4949925;28;20125;-83
2023/05/25 05:22:52;;;;;;;16.08;5.32;;;12.50;99.90;;;;;;4939608;28;20560;-83
2023/05/25 05:25:18;;;;;;;11.48;5.03;;;12.30;99.90;;;;;;4955430;28;20043;-83
2023/05/25 05:27:43;;;;;;;14.95;5.15;;;12.20;99.90;;;;;;4944919;28;20566;-83
2023/05/25 05:30:10;;;;;;;16.15;5.10;;;12.10;99.90;;;;;;4939285;28;20039;-82
2023/05/25 05:32:35;;;;;;;18.40;5.60;;;12.00;99.90;;;;;;4956121;28;20062;-82
2023/05/25 05:35:01;;;;;;;14.77;6.13;;;11.90;99.90;;;;;;4938882;28;20975;-83
2023/05/25 05:37:27;;;;;;;16.67;6.10;;;11.80;99.90;;;;;;4936348;28;21276;-81
2023/05/25 05:39:53;;;;;;;16.00;6.13;;;11.80;99.90;;;;;;4944513;28;20047;-82
2023/05/25 05:42:19;;;;;;;17.73;6.43;;;11.70;99.90;;;;;;4961526;28;20093;-82
2023/05/25 05:44:44;;;;;;;14.55;5.78;;;11.80;99.90;;;;;;4945406;28;20551;-81
2023/05/25 05:47:10;;;;;;;16.40;6.03;;;11.60;99.90;;;;;;4941777;28;20043;-82
2023/05/25 05:49:38;;;;;;;16.83;6.70;;;11.60;99.90;;;;;;4923458;28;20044;-82
2023/05/25 05:52:04;;;;;;;17.40;6.75;;;11.60;99.90;;;;;;4953787;28;20055;-84
2023/05/25 05:54:30;;;;;;;15.57;6.07;;;11.60;99.90;;;;;;4921977;28;20053;-83
2023/05/25 05:56:56;;;;;;;17.50;6.65;;;11.60;99.90;;;;;;4941096;28;20050;-82
2023/05/25 05:59:22;;;;;;;16.80;6.38;;;11.60;99.90;;;;;;4933862;28;20054;-82
2023/05/25 06:01:48;;;;;;;25.48;7.45;;;11.60;99.90;;;;;;4936274;28;20122;-82
2023/05/25 06:04:14;;;;;;;16.48;6.60;;;11.70;99.90;;;;;;4954457;28;20055;-82
2023/05/25 06:06:41;;;;;;;17.63;7.57;;;11.70;99.90;;;;;;4946106;28;20058;-82
2023/05/25 06:09:07;;;;;;;18.02;6.32;;;11.70;99.90;;;;;;4945990;28;20094;-81
2023/05/25 06:11:36;;;;;;;21.35;6.35;;;11.80;99.90;;;;;;4943378;28;20491;-83
2023/05/25 06:14:02;;;;;;;22.58;6.93;;;11.80;99.90;;;;;;4946962;28;20042;-84
2023/05/25 06:16:28;;;;;;;20.90;6.43;;;11.80;99.90;;;;;;4928598;28;20094;-82
2023/05/25 06:18:54;;;;;;;22.08;6.25;;;11.80;99.90;;;;;;4947114;28;20083;-82
2023/05/25 06:21:20;;;;;;;15.98;6.10;;;11.90;99.90;;;;;;4962316;28;20054;-83
2023/05/25 06:23:47;;;;;;;19.90;5.63;;;11.90;99.90;;;;;;4929668;28;20147;-83
2023/05/25 06:26:13;;;;;;;20.23;6.38;;;12.00;99.90;;;;;;4948632;28;20363;-83
2023/05/25 06:28:38;;;;;;;23.02;6.57;;;12.00;99.90;;;;;;4944451;28;20059;-81
2023/05/25 06:31:05;;;;;;;13.55;5.63;;;12.10;99.90;;;;;;4944736;28;20066;-85
2023/05/25 06:33:30;;;;;;;20.08;5.00;;;12.10;99.90;;;;;;4945644;28;20046;-85
2023/05/25 06:35:59;;;;;;;18.65;4.95;;;12.10;99.90;;;;;;4945550;28;20061;-84
2023/05/25 06:38:25;;;;;;;22.48;4.90;;;12.20;99.90;;;;;;4944810;28;20625;-84
2023/05/25 06:40:51;;;;;;;16.38;3.97;;;12.20;99.90;;;;;;4944062;28;20055;-83
2023/05/25 06:43:17;;;;;;;13.60;3.75;;;12.20;99.90;;;;;;4945441;28;20113;-84
2023/05/25 06:45:43;;;;;;;15.98;3.75;;;12.20;99.90;;;;;;4946925;28;20881;-84
2023/05/25 06:48:08;;;;;;;14.15;3.33;;;12.20;99.90;;;;;;4943449;28;20042;-84
2023/05/25 06:50:34;;;;;;;18.33;4.35;;;12.20;99.90;;;;;;4950193;28;20077;-83
2023/05/25 06:53:00;;;;;;;13.70;4.05;;;12.30;99.90;;;;;;4928889;28;20122;-86
2023/05/25 06:55:26;;;;;;;17.00;4.25;;;12.30;99.90;;;;;;4948171;28;20062;-84
2023/05/25 06:57:51;;;;;;;14.55;4.15;;;12.30;99.90;;;;;;4945855;28;20070;-86
2023/05/25 07:00:18;;;;;;;13.98;3.80;;;12.40;99.90;;;;;;4946170;28;20055;-85
2023/05/25 07:02:44;;;;;;;15.38;4.18;;;12.40;99.90;;;;;;4945743;28;20051;-84
2023/05/25 07:05:11;;;;;;;13.27;3.63;;;12.40;99.90;;;;;;4944829;28;20090;-86
2023/05/25 07:07:37;;;;;;;14.63;3.95;;;12.40;99.90;;;;;;4944209;28;20074;-86
2023/05/25 07:10:03;;;;;;;14.75;3.75;;;12.40;99.90;;;;;;4957701;28;20114;-87
2023/05/25 07:12:29;;;;;;;16.67;3.85;;;12.40;99.90;;;;;;4924794;28;20055;-87
2023/05/25 07:14:56;;;;;;;20.10;4.30;;;12.40;99.90;;;;;;4944121;28;20128;-84
2023/05/25 07:17:22;;;;;;;17.33;4.32;;;12.50;99.90;;;;;;4929195;28;20059;-85
2023/05/25 07:19:48;;;;;;;16.88;4.32;;;12.50;99.90;;;;;;4942506;28;20051;-78
2023/05/25 07:22:17;;;;;;;19.08;4.95;;;12.50;99.90;;;;;;4928535;28;20055;-78
2023/05/25 07:24:44;;;;;;;22.30;4.97;;;12.50;99.90;;;;;;4928636;28;20051;-77
2023/05/25 07:27:11;;;;;;;24.42;5.05;;;12.50;99.90;;;;;;4930074;28;20093;-78
2023/05/25 07:29:37;;;;;;;21.00;5.22;;;12.60;99.90;;;;;;4946506;28;20456;-78
2023/05/25 07:32:03;;;;;;;22.15;5.20;;;12.60;99.90;;;;;;4947541;28;20125;-78
2023/05/25 07:34:29;;;;;;;20.27;4.45;;;12.60;99.90;;;;;;4960729;28;21508;-78
2023/05/25 07:36:55;;;;;;;22.50;5.03;;;12.60;99.90;;;;;;4943476;28;20617;-78
2023/05/25 07:39:20;;;;;;;24.98;5.15;;;12.70;99.90;;;;;;4945862;28;20045;-78
2023/05/25 07:41:46;;;;;;;24.83;4.90;;;12.60;99.90;;;;;;4943137;28;20054;-77
2023/05/25 07:44:12;;;;;;;19.77;4.75;;;12.60;99.90;;;;;;4930307;28;20146;-78
2023/05/25 07:46:38;;;;;;;23.45;4.95;;;12.60;99.90;;;;;;4945871;28;20814;-77
2023/05/25 07:49:05;;;;;;;24.08;4.90;;;12.60;99.90;;;;;;4945678;28;20047;-78
2023/05/25 07:51:31;;;;;;;27.73;4.78;;;12.80;99.90;;;;;;4944725;28;20055;-78
2023/05/25 07:53:57;;;;;;;27.50;6.30;;;12.90;99.90;;;;;;4958280;28;20050;-77
2023/05/25 07:56:23;;;;;;;25.77;5.13;;;13.30;99.90;;;;;;4946034;28;20055;-78
2023/05/25 07:58:49;;;;;;;22.45;5.18;;;13.40;99.90;;;;;;4944566;28;20509;-79
2023/05/25 08:01:16;;;;;;;23.38;4.28;;;13.60;99.90;;;;;;4944000;28;20046;-80
2023/05/25 08:03:41;;;;;;;23.52;4.55;;;13.60;99.90;;;;;;4943667;28;20926;-77
2023/05/25 08:06:07;;;;;;;23.52;4.20;;;13.60;99.90;;;;;;4944211;28;20043;-79
2023/05/25 08:08:35;;;;;;;22.05;4.72;;;13.50;99.90;;;;;;4936816;28;20043;-77
2023/05/25 08:11:00;;;;;;;21.95;5.45;;;13.50;99.90;;;;;;4940373;28;20046;-79
2023/05/25 08:13:26;;;;;;;23.83;4.45;;;13.50;99.90;;;;;;4925891;28;20059;-80
2023/05/25 08:15:52;;;;;;;21.40;4.65;;;13.50;99.90;;;;;;4941443;28;20109;-80
2023/05/25 08:18:18;;;;;;;30.52;5.53;;;13.60;99.90;;;;;;4959277;28;20823;-81
2023/05/25 08:20:44;;;;;;;26.33;5.28;;;13.70;99.90;;;;;;4947987;28;20046;-82
2023/05/25 08:23:10;;;;;;;20.17;4.20;;;13.80;99.90;;;;;;4947509;28;20106;-81
2023/05/25 08:25:36;;;;;;;45.75;6.35;;;13.90;99.90;;;;;;4944130;28;20046;-81
2023/05/25 08:28:01;;;;;;;23.77;4.25;;;13.90;99.90;;;;;;4958657;28;20143;-81
2023/05/25 08:30:28;;;;;;;25.02;4.63;;;13.90;99.90;;;;;;4946527;28;20055;-81
2023/05/25 08:32:53;;;;;;;25.33;4.70;;;13.90;99.90;;;;;;4945841;28;20133;-80
2023/05/25 08:35:19;;;;;;;25.83;5.50;;;13.90;99.90;;;;;;4946439;28;20142;-80
2023/05/25 08:37:45;;;;;;;24.10;5.05;;;13.90;99.90;;;;;;4946374;28;20050;-80
2023/05/25 08:40:17;;;;;;;26.40;4.60;;;13.90;99.90;;;;;;4927391;28;20074;-80
2023/05/25 08:42:44;;;;;;;24.88;4.63;;;13.90;99.90;;;;;;4928569;28;20051;-79
2023/05/25 08:45:10;;;;;;;27.00;4.82;;;13.90;99.90;;;;;;4960773;28;20234;-80
2023/05/25 08:47:41;;;;;;;27.23;5.00;;;14.00;99.90;;;;;;4947764;28;20412;-79
2023/05/25 08:50:09;;;;;;;32.03;6.78;;;14.00;99.90;;;;;;4946817;28;20043;-81
2023/05/25 08:52:38;;;;;;;26.80;5.00;;;14.00;99.90;;;;;;4930907;28;20065;-80
2023/05/25 08:55:07;;;;;;;24.10;4.65;;;14.10;99.90;;;;;;4948676;28;20106;-79
2023/05/25 08:57:52;;;;;;;26.08;5.35;;;14.10;99.90;;;;;;4944201;28;20564;-79
2023/05/25 09:00:24;;;;;;;30.92;4.88;;;14.20;99.90;;;;;;4944887;28;20102;-81
2023/05/25 09:03:35;;;;;;;22.30;4.57;;;14.20;99.90;;;;;;4941296;28;20058;-80
2023/05/25 09:06:01;;;;;;;26.02;5.43;;;14.20;99.90;;;;;;4921509;29;20099;-81
2023/05/25 09:08:26;;;;;;;30.50;5.65;;;14.20;99.90;;;;;;4940619;28;20062;-81
2023/05/25 09:10:55;;;;;;;25.60;4.63;;;14.20;99.90;;;;;;4939924;28;20043;-80
2023/05/25 09:13:21;;;;;;;22.25;4.30;;;14.10;99.90;;;;;;4942311;28;20536;-80
2023/05/25 09:15:47;;;;;;;22.58;4.30;;;14.10;99.90;;;;;;4943789;28;20089;-80
2023/05/25 09:18:13;;;;;;;26.23;4.88;;;14.10;99.90;;;;;;4928471;28;20055;-80
2023/05/25 09:20:42;;;;;;;24.70;5.30;;;14.10;99.90;;;;;;4945270;28;20047;-81
2023/05/25 09:23:12;;;;;;;19.65;4.38;;;14.20;99.90;;;;;;4946522;28;20753;-81
2023/05/25 09:25:40;;;;;;;21.80;4.63;;;14.20;99.90;;;;;;4962049;28;20058;-87
2023/05/25 09:28:08;;;;;;;19.38;3.92;;;14.10;99.90;;;;;;4949220;28;20047;-86
2023/05/25 09:30:35;;;;;;;24.73;4.50;;;14.10;99.90;;;;;;4949563;28;20049;-86
2023/05/25 09:33:11;;;;;;;23.88;4.90;;;14.10;99.90;;;;;;4952482;28;20572;-85
2023/05/25 09:35:37;;;;;;;22.40;4.30;;;14.20;99.90;;;;;;4950632;28;20137;-87
2023/05/25 09:38:03;;;;;;;22.80;4.60;;;14.30;99.90;;;;;;4931728;28;20427;-89
2023/05/25 09:40:31;;;;;;;22.33;4.50;;;14.30;99.90;;;;;;4929484;28;20058;-85
2023/05/25 09:42:58;;;;;;;18.65;3.97;;;14.40;99.90;;;;;;4926112;28;20090;-86
2023/05/25 09:45:24;;;;;;;23.23;5.00;;;14.50;99.90;;;;;;4946952;28;20078;-80
2023/05/25 09:47:57;;;;;;;24.17;4.82;;;14.50;99.90;;;;;;4943716;28;20788;-81
2023/05/25 09:50:22;;;;;;;23.40;4.40;;;14.50;99.90;;;;;;4945514;28;20669;-81
2023/05/25 09:52:50;;;;;;;26.13;4.97;;;14.40;99.90;;;;;;4945274;28;20047;-82
2023/05/25 09:55:16;;;;;;;22.83;4.70;;;14.40;99.90;;;;;;4945718;28;20070;-81
2023/05/25 09:57:43;;;;;;;19.27;4.25;;;14.40;99.90;;;;;;4943049;28;20047;-79
2023/05/25 10:00:10;;;;;;;27.42;4.70;;;14.50;99.90;;;;;;4942122;28;20035;-79
2023/05/25 10:02:36;;;;;;;21.80;4.70;;;14.50;99.90;;;;;;4940942;28;20047;-78
2023/05/25 10:05:02;;;;;;;26.38;5.95;;;14.60;99.90;;;;;;4925621;28;20066;-82
2023/05/25 10:07:30;;;;;;;31.35;5.72;;;14.70;99.90;;;;;;4953941;28;20528;-79
2023/05/25 10:10:03;;;;;;;25.52;4.72;;;14.70;99.90;;;;;;4941770;28;20039;-79
2023/05/25 10:12:29;;;;;;;22.00;4.72;;;14.70;99.90;;;;;;4958711;28;20469;-87
2023/05/25 10:14:57;;;;;;;24.13;5.25;;;14.70;99.90;;;;;;4944964;28;20043;-88
2023/05/25 10:17:23;;;;;;;25.45;5.28;;;14.80;99.90;;;;;;4944901;28;20051;-87
2023/05/25 10:20:06;;;;;;;23.58;5.00;;;14.90;99.90;;;;;;4930875;28;20043;-86
2023/05/25 10:22:39;;;;;;;27.02;5.40;;;14.90;99.90;;;;;;4941456;28;20134;-86
2023/05/25 10:25:22;;;;;;;22.75;4.70;;;14.80;99.90;;;;;;4948371;28;20468;-86
2023/05/25 10:28:12;;;;;;;28.05;5.60;;;14.90;99.90;;;;;;4943774;28;20207;-87
2023/05/25 10:30:40;;;;;;;24.52;4.60;;;14.90;99.90;;;;;;4958779;28;20070;-87
2023/05/25 10:33:07;;;;;;;30.08;4.97;;;14.90;99.90;;;;;;4944243;28;20562;-87
2023/05/25 10:35:34;;;;;;;28.38;5.38;;;14.90;99.90;;;;;;4941094;28;20132;-88
2023/05/25 10:38:01;;;;;;;27.88;4.85;;;14.90;99.90;;;;;;4941526;28;20125;-85
2023/05/25 10:40:27;;;;;;;29.92;4.88;;;14.90;99.90;;;;;;4926717;28;20554;-87
2023/05/25 10:42:54;;;;;;;29.10;5.50;;;14.70;99.90;;;;;;4944375;28;20050;-86
2023/05/25 10:45:21;;;;;;;22.40;4.80;;;14.70;99.90;;;;;;4942084;28;20530;-87
2023/05/25 10:47:47;;;;;;;30.65;6.43;;;14.70;99.90;;;;;;4939386;28;20059;-88
2023/05/25 10:50:25;;;;;;;25.35;4.70;;;14.80;99.90;;;;;;4941959;28;20126;-86
2023/05/25 10:53:10;;;;;;;24.38;4.35;;;14.90;99.90;;;;;;4950638;28;20137;-85
2023/05/25 10:55:50;;;;;;;26.88;4.50;;;14.80;99.90;;;;;;4949739;28;20051;-89
2023/05/25 10:58:18;;;;;;;23.10;4.55;;;14.90;99.90;;;;;;4954546;28;20047;-87
2023/05/25 11:01:05;;;;;;;21.58;5.40;;;14.70;99.90;;;;;;4950623;28;20043;-86
2023/05/25 11:03:44;;;;;;;26.75;5.20;;;14.70;99.90;;;;;;4948031;28;20429;-87
2023/05/25 11:06:17;;;;;;;26.70;5.32;;;14.70;99.90;;;;;;4950564;28;20051;-88
2023/05/25 11:08:54;;;;;;;23.23;5.88;;;14.60;99.90;;;;;;4966714;28;20053;-88
2023/05/25 11:11:21;;;;;;;24.20;4.40;;;14.60;99.90;;;;;;4946655;28;20535;-81
2023/05/25 11:13:51;;;;;;;29.58;5.38;;;14.60;99.90;;;;;;4947149;28;20487;-81
2023/05/25 11:16:38;;;;;;;28.20;5.60;;;14.60;99.90;;;;;;4929720;28;20528;-79
2023/05/25 11:19:13;;;;;;;21.90;4.55;;;14.70;99.90;;;;;;4960258;28;20058;-81
2023/05/25 11:21:41;;;;;;;24.75;4.57;;;14.60;99.90;;;;;;4950355;28;20062;-76
2023/05/25 11:24:14;;;;;;;24.55;4.65;;;14.60;99.90;;;;;;4948640;28;20082;-81
2023/05/25 11:27:13;;;;;;;27.20;4.68;;;14.70;99.90;;;;;;4946952;28;20053;-80
2023/05/25 11:29:42;;;;;;;24.20;5.00;;;14.80;99.90;;;;;;4942324;28;20389;-81
2023/05/25 11:32:13;;;;;;;23.75;5.15;;;14.70;99.90;;;;;;4945555;28;20510;-78
2023/05/25 11:34:45;;;;;;;23.35;4.18;;;14.70;99.90;;;;;;4947025;28;20118;-85
2023/05/25 11:37:20;;;;;;;25.08;4.20;;;14.80;99.90;;;;;;4952833;28;20047;-85
2023/05/25 11:39:50;;;;;;;24.63;4.45;;;14.90;99.90;;;;;;4950990;28;20046;-85
2023/05/25 11:42:18;;;;;;;24.55;4.57;;;14.80;99.90;;;;;;4951729;28;20085;-88
2023/05/25 11:44:44;;;;;;;22.95;4.93;;;14.70;99.90;;;;;;4951575;28;20043;-88
2023/05/25 11:47:13;;;;;;;24.90;5.13;;;14.80;99.90;;;;;;4956179;28;20050;-88
2023/05/25 11:49:46;;;;;;;31.42;5.53;;;14.80;99.90;;;;;;4953228;28;20038;-85
2023/05/25 11:52:16;;;;;;;23.58;5.00;;;15.00;99.90;;;;;;4968946;28;20065;-85
2023/05/25 11:54:43;;;;;;;25.65;4.97;;;14.90;99.90;;;;;;4949639;28;20074;-88
2023/05/25 11:57:17;;;;;;;26.73;5.03;;;14.80;99.90;;;;;;4952959;28;20459;-89
2023/05/25 11:59:53;;;;;;;21.80;4.13;;;14.80;99.90;;;;;;4964390;28;20078;-87
2023/05/25 12:02:20;;;;;;;31.30;4.93;;;14.70;99.90;;;;;;4949522;28;20043;-86
2023/05/25 12:05:02;;;;;;;24.50;4.90;;;14.70;99.90;;;;;;4948467;28;20067;-87
2023/05/25 12:07:30;;;;;;;27.45;5.38;;;14.70;99.90;;;;;;4931504;28;20054;-88
2023/05/25 12:10:05;;;;;;;26.58;5.60;;;14.70;99.90;;;;;;4945418;28;20432;-86
2023/05/25 12:12:44;;;;;;;24.70;5.65;;;14.70;99.90;;;;;;4952095;28;20051;-89
2023/05/25 12:15:19;;;;;;;24.20;5.43;;;14.70;99.90;;;;;;4961984;28;20044;-89
2023/05/25 12:17:45;;;;;;;21.33;4.72;;;14.70;99.90;;;;;;4949737;28;20110;-86
2023/05/25 12:20:13;;;;;;;24.15;4.90;;;14.70;99.90;;;;;;4950760;28;20058;-86
2023/05/25 12:22:43;;;;;;;22.73;4.40;;;14.60;99.90;;;;;;4952667;28;20122;-87
2023/05/25 12:25:10;;;;;;;21.75;4.53;;;14.60;99.90;;;;;;4938184;28;20153;-86
2023/05/25 12:27:37;;;;;;;23.75;5.25;;;14.70;99.90;;;;;;4948649;28;20043;-86
2023/05/25 12:30:04;;;;;;;28.50;5.55;;;14.70;99.90;;;;;;4963730;28;20039;-89
2023/05/25 12:32:29;;;;;;;19.83;4.63;;;14.70;99.90;;;;;;4950438;28;20121;-85
2023/05/25 12:35:05;;;;;;;28.88;5.35;;;14.60;99.90;;;;;;4959496;28;20492;-86
2023/05/25 12:37:34;;;;;;;26.63;4.32;;;14.60;99.90;;;;;;4944387;28;20074;-88
2023/05/25 12:40:00;;;;;;;23.65;4.75;;;14.70;99.90;;;;;;4960545;28;20051;-84
2023/05/25 12:42:26;;;;;;;27.15;5.43;;;14.70;99.90;;;;;;4943667;28;20528;-88
2023/05/25 12:44:56;;;;;;;27.92;5.00;;;14.70;99.90;;;;;;4940873;28;20050;-87